Time;durP1;ratioP1;P1;durP2;ratioP2;P2;SDS_P1;SDS_P2;PMS_P1;PMS_P2;Temp;Humidity;BMP_temperature;BMP_pressure;BME280_temperature;BME280_humidity;BME280_pressure;Samples;Min_cycle;Max_cycle;Signal;HPM_P1;HPM_P2
2023/03/16 00:02:12;;;;;;;9.27;2.97;;;3.60;99.90;;;;;;5052086;28;20037;-66
2023/03/16 00:04:38;;;;;;;11.45;2.92;;;3.60;99.90;;;;;;5051655;28;20037;-67
2023/03/16 00:07:05;;;;;;;5.60;2.78;;;3.60;99.90;;;;;;5052262;28;20040;-66
2023/03/16 00:09:31;;;;;;;10.80;2.95;;;3.60;99.90;;;;;;5052032;28;20037;-66
2023/03/16 00:11:57;;;;;;;8.05;2.60;;;3.60;99.90;;;;;;5051762;28;20401;-66
2023/03/16 00:14:23;;;;;;;6.82;2.78;;;3.60;99.90;;;;;;5051672;28;20044;-67
2023/03/16 00:16:49;;;;;;;7.05;2.95;;;3.60;99.90;;;;;;5051888;28;20032;-66
2023/03/16 00:19:15;;;;;;;5.72;2.58;;;3.70;99.90;;;;;;5051707;28;20124;-67
2023/03/16 00:21:40;;;;;;;7.95;3.20;;;3.60;99.90;;;;;;5051914;28;20044;-67
2023/03/16 00:24:06;;;;;;;9.30;2.88;;;3.60;99.90;;;;;;5051498;28;20045;-66
2023/03/16 00:26:32;;;;;;;6.57;2.50;;;3.60;99.90;;;;;;5051833;28;20133;-66
2023/03/16 00:28:57;;;;;;;8.77;2.97;;;3.60;99.90;;;;;;5051723;28;20076;-67
2023/03/16 00:31:23;;;;;;;4.70;2.75;;;3.60;99.90;;;;;;5051551;28;20501;-66
2023/03/16 00:33:49;;;;;;;6.63;2.70;;;3.60;99.90;;;;;;5046659;28;20033;-67
2023/03/16 00:36:15;;;;;;;11.50;2.92;;;3.60;99.90;;;;;;5031952;28;20033;-67
2023/03/16 00:38:45;;;;;;;6.43;2.55;;;3.60;99.90;;;;;;5031671;28;20508;-67
2023/03/16 00:41:15;;;;;;;6.70;2.83;;;3.60;99.90;;;;;;5031711;28;20038;-66
2023/03/16 00:43:44;;;;;;;6.22;2.63;;;3.70;99.90;;;;;;5031392;28;20045;-67
2023/03/16 00:46:12;;;;;;;10.63;2.90;;;3.60;99.90;;;;;;5031551;28;20073;-66
2023/03/16 00:48:41;;;;;;;3.50;2.33;;;3.70;99.90;;;;;;5031752;28;20112;-67
2023/03/16 00:51:08;;;;;;;9.05;2.65;;;3.60;99.90;;;;;;5031547;28;20120;-67
2023/03/16 00:53:35;;;;;;;9.05;3.17;;;3.60;99.90;;;;;;5031482;28;20136;-67
2023/03/16 00:56:05;;;;;;;7.25;2.75;;;3.60;99.90;;;;;;5031564;28;20098;-66
2023/03/16 00:58:35;;;;;;;6.53;2.95;;;3.60;99.90;;;;;;5031548;28;20033;-66
2023/03/16 01:01:03;;;;;;;6.22;2.42;;;3.60;99.90;;;;;;5031373;28;20120;-66
2023/03/16 01:03:28;;;;;;;5.45;2.85;;;3.50;99.90;;;;;;5031452;28;20041;-67
2023/03/16 01:05:58;;;;;;;8.68;3.00;;;3.60;99.90;;;;;;5031357;28;20041;-66
2023/03/16 01:08:26;;;;;;;9.93;2.80;;;3.50;99.90;;;;;;5031575;28;20118;-66
2023/03/16 01:10:53;;;;;;;7.13;3.00;;;3.50;99.90;;;;;;5031550;28;20042;-66
2023/03/16 01:13:19;;;;;;;6.47;2.78;;;3.50;99.90;;;;;;5035221;28;20120;-66
2023/03/16 01:15:45;;;;;;;7.90;3.58;;;3.50;99.90;;;;;;5035349;28;20385;-66
2023/03/16 01:18:12;;;;;;;6.75;3.13;;;3.60;99.90;;;;;;5035206;28;20044;-67
2023/03/16 01:20:38;;;;;;;8.32;2.50;;;3.50;99.90;;;;;;5017339;28;20041;-67
2023/03/16 01:23:03;;;;;;;5.93;2.65;;;3.60;99.90;;;;;;5035249;28;20041;-67
2023/03/16 01:25:29;;;;;;;12.35;3.05;;;3.50;99.90;;;;;;5034862;28;20095;-67
2023/03/16 01:27:55;;;;;;;9.48;3.08;;;3.50;99.90;;;;;;5034997;28;20044;-67
2023/03/16 01:30:20;;;;;;;8.05;3.00;;;3.50;99.90;;;;;;5034822;28;20117;-67
2023/03/16 01:32:46;;;;;;;7.15;3.22;;;3.50;99.90;;;;;;5034874;28;20045;-67
2023/03/16 01:35:12;;;;;;;5.72;3.03;;;3.50;99.90;;;;;;5017126;28;20037;-67
2023/03/16 01:37:38;;;;;;;4.93;2.67;;;3.50;99.90;;;;;;5034941;28;20041;-66
2023/03/16 01:40:07;;;;;;;5.82;3.50;;;3.50;99.90;;;;;;5034851;28;20094;-66
2023/03/16 01:42:59;;;;;;;4.80;2.85;;;3.40;99.90;;;;;;5034680;28;20057;-66
2023/03/16 01:45:59;;;;;;;6.53;3.03;;;3.40;99.90;;;;;;5034686;28;20090;-66
2023/03/16 01:48:26;;;;;;;7.40;3.40;;;3.40;99.90;;;;;;5034735;28;20049;-66
2023/03/16 01:50:52;;;;;;;10.77;3.65;;;3.40;99.90;;;;;;5034441;28;20034;-66
2023/03/16 01:53:20;;;;;;;7.20;3.15;;;3.40;99.90;;;;;;5034700;28;20051;-66
2023/03/16 01:55:47;;;;;;;7.72;3.88;;;3.50;99.90;;;;;;5016729;28;20053;-66
2023/03/16 01:58:13;;;;;;;8.10;3.63;;;3.50;99.90;;;;;;5034622;28;20036;-67
2023/03/16 02:00:40;;;;;;;10.68;3.30;;;3.40;99.90;;;;;;5016554;28;20095;-67
2023/03/16 02:03:14;;;;;;;7.10;3.72;;;3.50;99.90;;;;;;5034444;28;20048;-66
2023/03/16 02:05:44;;;;;;;7.15;3.50;;;3.50;99.90;;;;;;5034509;28;20410;-67
2023/03/16 02:08:11;;;;;;;7.35;3.60;;;3.50;99.90;;;;;;5034364;28;20092;-67
2023/03/16 02:10:38;;;;;;;9.18;3.63;;;3.50;99.90;;;;;;5033926;28;20467;-67
2023/03/16 02:13:04;;;;;;;8.15;3.95;;;3.50;99.90;;;;;;5034349;28;20037;-67
2023/03/16 02:15:30;;;;;;;5.97;3.78;;;3.50;99.90;;;;;;5033984;28;20397;-66
2023/03/16 02:17:58;;;;;;;6.55;3.35;;;3.50;99.90;;;;;;5016329;28;20041;-66
2023/03/16 02:20:55;;;;;;;10.27;3.88;;;3.50;99.90;;;;;;5016359;28;20122;-67
2023/03/16 02:23:22;;;;;;;6.18;3.60;;;3.50;99.90;;;;;;5015172;28;20045;-66
2023/03/16 02:26:24;;;;;;;7.93;4.20;;;3.50;99.90;;;;;;5033940;28;20044;-67
2023/03/16 02:29:28;;;;;;;5.78;3.55;;;3.50;99.90;;;;;;5033987;28;20500;-66
2023/03/16 02:31:56;;;;;;;8.75;4.40;;;3.40;99.90;;;;;;5015997;28;20046;-67
2023/03/16 02:34:22;;;;;;;7.63;3.95;;;3.40;99.90;;;;;;4999559;28;20045;-67
2023/03/16 02:36:51;;;;;;;7.65;4.13;;;3.40;99.90;;;;;;5016077;28;20033;-66
2023/03/16 02:39:17;;;;;;;8.15;3.70;;;3.40;99.90;;;;;;5016084;28;20079;-67
2023/03/16 02:41:43;;;;;;;11.25;4.45;;;3.40;99.90;;;;;;5016111;28;20045;-66
2023/03/16 02:44:17;;;;;;;14.48;5.22;;;3.40;99.90;;;;;;5015660;28;20053;-67
2023/03/16 02:46:45;;;;;;;7.70;4.55;;;3.40;99.90;;;;;;5016212;28;20041;-67
2023/03/16 02:49:16;;;;;;;7.20;3.95;;;3.40;99.90;;;;;;4999397;28;20048;-67
2023/03/16 02:51:44;;;;;;;8.60;4.25;;;3.40;99.90;;;;;;5033588;28;20112;-67
2023/03/16 02:54:09;;;;;;;7.07;3.88;;;3.40;99.90;;;;;;5015643;28;20041;-67
2023/03/16 02:56:35;;;;;;;9.73;4.10;;;3.40;99.90;;;;;;5033506;28;20037;-67
2023/03/16 02:59:00;;;;;;;6.47;4.18;;;3.40;99.90;;;;;;5033391;28;20096;-67
2023/03/16 03:01:26;;;;;;;8.05;3.95;;;3.40;99.90;;;;;;5033288;28;20056;-67
2023/03/16 03:03:52;;;;;;;9.70;4.55;;;3.50;99.90;;;;;;5015408;28;20137;-66
2023/03/16 03:06:17;;;;;;;5.60;3.67;;;3.50;99.90;;;;;;5033405;28;20045;-66
2023/03/16 03:08:43;;;;;;;7.50;3.88;;;3.40;99.90;;;;;;5033356;28;20457;-66
2023/03/16 03:11:09;;;;;;;7.28;3.95;;;3.50;99.90;;;;;;5033073;28;20432;-67
2023/03/16 03:13:37;;;;;;;9.45;3.80;;;3.60;99.90;;;;;;5032958;28;20041;-66
2023/03/16 03:16:03;;;;;;;8.77;4.13;;;3.60;99.90;;;;;;5033084;28;20401;-66
2023/03/16 03:18:28;;;;;;;9.10;4.82;;;3.60;99.90;;;;;;5033031;28;20041;-67
2023/03/16 03:20:54;;;;;;;8.48;4.05;;;3.60;99.90;;;;;;5033033;28;20041;-67
2023/03/16 03:23:19;;;;;;;9.57;4.13;;;3.60;99.90;;;;;;5032929;28;20136;-66
2023/03/16 03:25:46;;;;;;;6.20;4.00;;;3.60;99.90;;;;;;5015313;28;20504;-67
2023/03/16 03:28:13;;;;;;;6.78;4.80;;;3.60;99.90;;;;;;5032828;28;20041;-66
2023/03/16 03:30:39;;;;;;;8.82;4.63;;;3.70;99.90;;;;;;5032592;28;20046;-66
2023/03/16 03:33:04;;;;;;;9.63;4.70;;;3.60;99.90;;;;;;5014413;28;20044;-67
2023/03/16 03:35:30;;;;;;;7.95;4.05;;;3.70;99.90;;;;;;5032123;28;20116;-67
2023/03/16 03:37:56;;;;;;;9.25;4.10;;;3.70;99.90;;;;;;5032705;28;20037;-67
2023/03/16 03:40:21;;;;;;;9.02;4.03;;;3.70;99.90;;;;;;5014754;28;20053;-66
2023/03/16 03:42:47;;;;;;;9.15;3.75;;;3.70;99.90;;;;;;5032456;28;20037;-66
2023/03/16 03:45:14;;;;;;;6.43;3.95;;;3.70;99.90;;;;;;5032132;28;20119;-67
2023/03/16 03:47:40;;;;;;;6.45;3.70;;;3.70;99.90;;;;;;5014984;28;20049;-67
2023/03/16 03:50:08;;;;;;;7.85;4.00;;;3.70;99.90;;;;;;5032529;28;20037;-66
2023/03/16 03:52:34;;;;;;;5.80;3.53;;;3.80;99.90;;;;;;5032421;28;20036;-66
2023/03/16 03:54:59;;;;;;;6.75;4.07;;;3.70;99.90;;;;;;5032139;28;20033;-66
2023/03/16 03:57:25;;;;;;;6.40;4.20;;;3.80;99.90;;;;;;5032285;28;20033;-66
2023/03/16 03:59:50;;;;;;;7.50;4.40;;;3.80;99.90;;;;;;5032111;28;20041;-67
2023/03/16 04:02:16;;;;;;;8.40;4.60;;;3.80;99.90;;;;;;5032176;28;20042;-66
2023/03/16 04:04:42;;;;;;;7.70;4.18;;;3.80;99.90;;;;;;5031809;28;20042;-66
2023/03/16 04:07:08;;;;;;;9.85;4.90;;;3.80;99.90;;;;;;5032085;28;20513;-66
2023/03/16 04:09:33;;;;;;;8.90;5.55;;;3.80;99.90;;;;;;5014384;28;20117;-66
2023/03/16 04:12:00;;;;;;;6.53;4.05;;;3.80;99.90;;;;;;5031845;28;20037;-67
2023/03/16 04:14:27;;;;;;;8.10;4.13;;;3.80;99.90;;;;;;5031555;28;20033;-67
2023/03/16 04:16:53;;;;;;;7.93;4.25;;;3.80;99.90;;;;;;5031942;28;20029;-66
2023/03/16 04:19:22;;;;;;;7.53;3.88;;;3.80;99.90;;;;;;5032013;28;20112;-66
2023/03/16 04:21:48;;;;;;;8.27;4.30;;;3.80;99.90;;;;;;5031820;28;20421;-67
2023/03/16 04:24:14;;;;;;;7.72;4.15;;;3.80;99.90;;;;;;5031616;28;20049;-67
2023/03/16 04:26:43;;;;;;;7.00;4.07;;;3.80;99.90;;;;;;5031929;28;20121;-67
2023/03/16 04:29:13;;;;;;;7.78;4.88;;;3.80;99.90;;;;;;5031750;28;20143;-67
2023/03/16 04:31:39;;;;;;;7.55;5.40;;;3.80;99.90;;;;;;5031773;28;20037;-67
2023/03/16 04:34:05;;;;;;;9.38;4.70;;;3.80;99.90;;;;;;5031669;28;20033;-67
2023/03/16 04:36:33;;;;;;;9.00;4.18;;;3.80;99.90;;;;;;5031747;28;20045;-66
2023/03/16 04:38:58;;;;;;;7.78;4.88;;;3.80;99.90;;;;;;5031748;28;20037;-66
2023/03/16 04:41:25;;;;;;;10.63;4.45;;;3.80;99.90;;;;;;5013908;28;20049;-67
2023/03/16 04:43:51;;;;;;;10.25;4.57;;;3.80;99.90;;;;;;5031306;28;20041;-67
2023/03/16 04:46:17;;;;;;;8.15;4.90;;;3.80;99.90;;;;;;5031258;28;20049;-67
2023/03/16 04:48:42;;;;;;;8.63;3.95;;;3.80;99.90;;;;;;5031578;28;20049;-67
2023/03/16 04:51:08;;;;;;;8.77;4.88;;;3.80;99.90;;;;;;5031590;28;20099;-67
2023/03/16 04:53:33;;;;;;;9.70;4.72;;;3.80;99.90;;;;;;5031446;28;20497;-66
2023/03/16 04:55:59;;;;;;;7.10;4.32;;;3.80;99.90;;;;;;5031481;28;20033;-67
2023/03/16 04:58:25;;;;;;;10.05;4.88;;;3.80;99.90;;;;;;5031364;28;20499;-67
2023/03/16 05:00:52;;;;;;;6.05;4.03;;;3.80;99.90;;;;;;5031617;28;20034;-67
2023/03/16 05:03:17;;;;;;;7.07;4.43;;;3.80;99.90;;;;;;5031408;28;20052;-66
2023/03/16 05:05:45;;;;;;;8.07;4.32;;;3.80;99.90;;;;;;5013898;28;20116;-66
2023/03/16 05:08:11;;;;;;;8.75;4.70;;;3.90;99.90;;;;;;5031444;28;20045;-67
2023/03/16 05:10:37;;;;;;;8.25;4.80;;;3.80;99.90;;;;;;5031138;28;20548;-67
2023/03/16 05:13:03;;;;;;;6.60;4.50;;;3.80;99.90;;;;;;5013555;28;20041;-67
2023/03/16 05:15:29;;;;;;;8.32;4.63;;;3.80;99.90;;;;;;5031257;28;20030;-67
2023/03/16 05:17:55;;;;;;;8.05;4.70;;;3.80;99.90;;;;;;5013635;28;20567;-66
2023/03/16 05:20:21;;;;;;;11.73;4.97;;;3.80;99.90;;;;;;5031206;28;20041;-67
2023/03/16 05:22:47;;;;;;;9.73;4.93;;;3.80;99.90;;;;;;5031204;28;20413;-67
2023/03/16 05:25:13;;;;;;;8.10;5.45;;;3.80;99.90;;;;;;5013278;28;20053;-67
2023/03/16 05:27:41;;;;;;;12.63;5.90;;;3.90;99.90;;;;;;5013390;28;20041;-67
2023/03/16 05:30:08;;;;;;;8.15;4.55;;;3.90;99.90;;;;;;5031317;28;20037;-66
2023/03/16 05:32:34;;;;;;;7.13;4.30;;;3.90;99.90;;;;;;4997288;28;20056;-67
2023/03/16 05:35:01;;;;;;;9.85;5.25;;;3.90;99.90;;;;;;5030921;28;20038;-66
2023/03/16 05:37:26;;;;;;;7.90;5.65;;;3.90;99.90;;;;;;5031053;28;20505;-66
2023/03/16 05:39:52;;;;;;;12.95;5.18;;;3.90;99.90;;;;;;5031001;28;20043;-67
2023/03/16 05:42:18;;;;;;;8.80;4.60;;;3.90;99.90;;;;;;5013318;28;20121;-66
2023/03/16 05:44:44;;;;;;;15.27;5.13;;;3.90;99.90;;;;;;5030886;28;20393;-66
2023/03/16 05:47:09;;;;;;;6.70;4.82;;;3.90;99.90;;;;;;5031168;28;20033;-67
2023/03/16 05:49:35;;;;;;;12.18;5.07;;;3.90;99.90;;;;;;5031126;28;20037;-66
2023/03/16 05:52:00;;;;;;;9.32;4.95;;;4.00;99.90;;;;;;5030964;28;20088;-67
2023/03/16 05:54:26;;;;;;;8.23;4.78;;;3.90;99.90;;;;;;5030607;28;20455;-66
2023/03/16 05:56:51;;;;;;;8.93;4.75;;;3.90;99.90;;;;;;5030969;28;20037;-67
2023/03/16 05:59:17;;;;;;;6.90;4.47;;;4.00;99.90;;;;;;5033613;28;20116;-67
2023/03/16 06:01:42;;;;;;;8.88;4.85;;;4.00;99.90;;;;;;5034403;28;20143;-66
2023/03/16 06:04:08;;;;;;;6.90;4.10;;;4.00;99.90;;;;;;5016366;28;20425;-66
2023/03/16 06:06:33;;;;;;;10.55;4.88;;;4.00;99.90;;;;;;5034409;28;20041;-67
2023/03/16 06:09:00;;;;;;;10.15;4.85;;;4.00;99.90;;;;;;5034320;28;20037;-67
2023/03/16 06:11:25;;;;;;;8.63;4.30;;;4.00;99.90;;;;;;5064137;22;20052;-69
2023/03/16 06:13:51;;;;;;;8.73;5.00;;;4.00;99.90;;;;;;5053590;28;20040;-69
2023/03/16 06:16:16;;;;;;;5.53;4.13;;;4.00;99.90;;;;;;5054236;28;20498;-69
2023/03/16 06:18:42;;;;;;;11.65;4.82;;;4.10;99.90;;;;;;5053592;28;20416;-69
2023/03/16 06:21:08;;;;;;;7.93;4.82;;;4.10;99.90;;;;;;5036233;28;20415;-69
2023/03/16 06:23:33;;;;;;;7.22;3.97;;;4.10;99.90;;;;;;5053828;28;20049;-68
2023/03/16 06:25:59;;;;;;;7.47;4.82;;;4.10;99.90;;;;;;5053923;28;20040;-69
2023/03/16 06:28:26;;;;;;;8.18;5.22;;;4.10;99.90;;;;;;5054148;28;20040;-69
2023/03/16 06:30:56;;;;;;;11.30;4.40;;;4.10;99.90;;;;;;5053996;28;20411;-69
2023/03/16 06:33:22;;;;;;;10.80;4.93;;;4.10;99.90;;;;;;5053659;28;20045;-69
2023/03/16 06:35:48;;;;;;;9.77;4.82;;;4.10;99.90;;;;;;5053526;28;20504;-68
2023/03/16 06:38:15;;;;;;;9.13;5.43;;;4.10;99.90;;;;;;5053777;28;20443;-68
2023/03/16 06:40:40;;;;;;;8.13;4.88;;;4.20;99.90;;;;;;5053778;28;20095;-69
2023/03/16 06:43:07;;;;;;;10.02;5.70;;;4.20;99.90;;;;;;5053699;28;20041;-69
2023/03/16 06:45:33;;;;;;;12.25;5.30;;;4.20;99.90;;;;;;5053495;28;20037;-68
2023/03/16 06:47:58;;;;;;;9.82;4.82;;;4.20;99.90;;;;;;5053623;28;20393;-69
2023/03/16 06:50:24;;;;;;;8.57;4.65;;;4.20;99.90;;;;;;5053385;28;20040;-69
2023/03/16 06:52:50;;;;;;;6.05;3.80;;;4.30;99.90;;;;;;5053525;28;20041;-68
2023/03/16 06:55:16;;;;;;;9.15;5.22;;;4.30;99.90;;;;;;5053303;28;20037;-69
2023/03/16 06:57:41;;;;;;;8.02;4.82;;;4.30;99.90;;;;;;5053485;28;20041;-68
2023/03/16 07:00:09;;;;;;;7.43;4.38;;;4.40;99.90;;;;;;5053399;28;20569;-69
2023/03/16 07:02:34;;;;;;;8.52;4.32;;;4.40;99.90;;;;;;5053489;28;20044;-69
2023/03/16 07:05:01;;;;;;;8.10;4.85;;;4.50;99.90;;;;;;5034934;28;20041;-69
2023/03/16 07:07:27;;;;;;;8.48;4.68;;;4.50;99.90;;;;;;5035276;28;20557;-69
2023/03/16 07:09:52;;;;;;;9.70;5.05;;;4.50;99.90;;;;;;5052775;28;20128;-70
2023/03/16 07:12:18;;;;;;;6.88;4.68;;;4.50;99.90;;;;;;5052936;28;20047;-69
2023/03/16 07:14:43;;;;;;;8.38;5.15;;;4.50;99.90;;;;;;5035020;28;20037;-69
2023/03/16 07:17:09;;;;;;;9.70;4.57;;;4.50;99.90;;;;;;5053105;28;20094;-69
2023/03/16 07:19:34;;;;;;;10.00;4.65;;;4.60;99.90;;;;;;5052884;28;20107;-68
2023/03/16 07:22:01;;;;;;;7.18;4.90;;;4.60;99.90;;;;;;5018598;28;20102;-69
2023/03/16 07:24:27;;;;;;;7.53;3.97;;;4.60;99.90;;;;;;5052772;28;20047;-69
2023/03/16 07:26:53;;;;;;;6.95;4.15;;;4.60;99.90;;;;;;5052830;28;20040;-69
2023/03/16 07:29:18;;;;;;;7.70;4.25;;;4.60;99.90;;;;;;5035122;28;20041;-69
2023/03/16 07:31:44;;;;;;;10.15;4.85;;;4.70;99.90;;;;;;5034834;28;20033;-68
2023/03/16 07:34:10;;;;;;;10.50;5.38;;;4.70;99.90;;;;;;5034437;28;20118;-69
2023/03/16 07:36:36;;;;;;;6.10;4.70;;;4.70;99.90;;;;;;5052777;28;20037;-68
2023/03/16 07:39:02;;;;;;;7.70;4.85;;;4.70;99.90;;;;;;5052524;28;20068;-69
2023/03/16 07:41:28;;;;;;;7.20;4.30;;;4.80;99.90;;;;;;5035407;28;20067;-68
2023/03/16 07:43:53;;;;;;;8.13;4.63;;;4.80;99.90;;;;;;5034344;28;20045;-69
2023/03/16 07:46:19;;;;;;;8.70;4.85;;;4.80;99.90;;;;;;5034791;28;20094;-69
2023/03/16 07:48:45;;;;;;;7.70;4.63;;;4.90;99.90;;;;;;5052315;28;20037;-69
2023/03/16 07:51:12;;;;;;;10.13;5.30;;;4.90;99.90;;;;;;5052457;28;20064;-69
2023/03/16 07:53:38;;;;;;;16.55;5.60;;;4.90;99.90;;;;;;5052256;28;20041;-68
2023/03/16 07:56:05;;;;;;;9.13;4.53;;;4.90;99.90;;;;;;5034650;28;20432;-68
2023/03/16 07:58:31;;;;;;;12.60;4.72;;;4.90;99.90;;;;;;5052201;28;20072;-68
2023/03/16 08:00:58;;;;;;;8.40;4.55;;;5.00;99.90;;;;;;5052134;28;20415;-68
2023/03/16 08:03:24;;;;;;;6.13;4.55;;;5.00;99.90;;;;;;5051992;28;20116;-69
2023/03/16 08:05:51;;;;;;;8.63;4.45;;;5.00;99.90;;;;;;5052151;28;20056;-69
2023/03/16 08:08:17;;;;;;;8.65;4.72;;;5.00;99.90;;;;;;5034071;28;20492;-68
2023/03/16 08:10:42;;;;;;;7.15;4.57;;;5.00;99.90;;;;;;5017610;28;20040;-68
2023/03/16 08:13:08;;;;;;;7.30;4.90;;;5.10;99.90;;;;;;5051966;28;20091;-69
2023/03/16 08:15:34;;;;;;;12.52;4.68;;;5.10;99.90;;;;;;5033376;28;20041;-69
2023/03/16 08:18:01;;;;;;;8.15;4.68;;;5.20;99.90;;;;;;5051538;28;20523;-68
2023/03/16 08:20:27;;;;;;;7.45;4.45;;;5.20;99.90;;;;;;5051259;28;20052;-68
2023/03/16 08:22:53;;;;;;;8.05;5.13;;;5.20;99.90;;;;;;5051807;28;20078;-68
2023/03/16 08:25:19;;;;;;;7.93;4.85;;;5.30;99.90;;;;;;5033340;28;20089;-69
2023/03/16 08:27:47;;;;;;;9.50;5.30;;;5.30;99.90;;;;;;5051392;28;20044;-69
2023/03/16 08:30:15;;;;;;;9.15;4.82;;;5.40;99.90;;;;;;5051605;28;20039;-69
2023/03/16 08:32:40;;;;;;;8.65;4.72;;;5.40;99.90;;;;;;5051600;28;20041;-69
2023/03/16 08:35:08;;;;;;;7.57;4.80;;;5.40;99.90;;;;;;5051282;28;20447;-69
2023/03/16 08:37:34;;;;;;;8.10;4.95;;;5.40;99.90;;;;;;5033618;28;20086;-69
2023/03/16 08:40:00;;;;;;;6.68;4.53;;;5.30;99.90;;;;;;5051289;28;20037;-68
2023/03/16 08:42:27;;;;;;;8.57;5.05;;;5.30;99.90;;;;;;5051171;28;20480;-69
2023/03/16 08:44:54;;;;;;;6.38;4.57;;;5.20;99.90;;;;;;5050952;28;20481;-68
2023/03/16 08:47:21;;;;;;;10.75;5.30;;;5.30;99.90;;;;;;5051789;28;20047;-69
2023/03/16 08:49:48;;;;;;;6.95;4.88;;;5.20;99.90;;;;;;5051696;28;20040;-68
2023/03/16 08:52:14;;;;;;;9.60;4.85;;;5.30;99.90;;;;;;5051481;28;20124;-68
2023/03/16 08:54:40;;;;;;;10.90;7.38;;;5.30;99.90;;;;;;5051300;28;20063;-68
2023/03/16 08:57:06;;;;;;;9.43;5.07;;;5.30;99.90;;;;;;5051501;28;20540;-68
2023/03/16 08:59:32;;;;;;;8.70;5.20;;;5.40;99.90;;;;;;5051331;28;20124;-69
2023/03/16 09:01:57;;;;;;;7.55;4.78;;;5.30;99.90;;;;;;5051327;28;20116;-68
2023/03/16 09:04:23;;;;;;;7.70;5.38;;;5.40;99.90;;;;;;5051276;28;20063;-68
2023/03/16 09:06:52;;;;;;;6.72;4.65;;;5.30;99.90;;;;;;5051399;28;20039;-69
2023/03/16 09:09:18;;;;;;;8.10;4.75;;;5.40;99.90;;;;;;5051326;28;20048;-68
2023/03/16 09:11:44;;;;;;;6.43;4.80;;;5.40;99.90;;;;;;5051113;28;20037;-68
2023/03/16 09:14:10;;;;;;;11.57;5.38;;;5.40;99.90;;;;;;5050908;28;20049;-69
2023/03/16 09:16:37;;;;;;;18.00;5.47;;;5.40;99.90;;;;;;5051515;28;20033;-68
2023/03/16 09:19:03;;;;;;;6.85;4.90;;;5.50;99.90;;;;;;5051561;28;20063;-68
2023/03/16 09:21:30;;;;;;;8.45;5.00;;;5.50;99.90;;;;;;5033328;28;20056;-69
2023/03/16 09:23:55;;;;;;;7.22;4.75;;;5.50;99.90;;;;;;5051156;28;20052;-68
2023/03/16 09:26:21;;;;;;;7.43;5.10;;;5.50;99.90;;;;;;5033420;28;20041;-68
2023/03/16 09:28:48;;;;;;;9.05;5.15;;;5.50;99.90;;;;;;5051240;28;20295;-69
2023/03/16 09:31:16;;;;;;;10.77;6.05;;;5.50;99.90;;;;;;5032728;28;20108;-68
2023/03/16 09:33:42;;;;;;;11.27;5.45;;;5.60;99.90;;;;;;5054403;28;20044;-68
2023/03/16 09:36:10;;;;;;;8.25;5.35;;;5.60;99.90;;;;;;5054965;28;20108;-68
2023/03/16 09:38:36;;;;;;;10.65;5.22;;;5.60;99.90;;;;;;5036526;28;20069;-68
2023/03/16 09:41:19;;;;;;;10.32;5.35;;;5.60;99.90;;;;;;5053962;28;20121;-69
2023/03/16 09:44:09;;;;;;;9.00;5.35;;;5.70;99.90;;;;;;5052988;28;20048;-68
2023/03/16 09:46:41;;;;;;;10.35;5.63;;;5.70;99.90;;;;;;5051706;28;20151;-68
2023/03/16 09:49:10;;;;;;;10.27;5.65;;;5.80;99.90;;;;;;5036340;28;20511;-68
2023/03/16 09:51:57;;;;;;;10.07;5.45;;;5.90;99.90;;;;;;5054299;28;20048;-68
2023/03/16 09:54:53;;;;;;;11.32;5.63;;;5.90;99.90;;;;;;5036537;28;20037;-69
2023/03/16 09:57:36;;;;;;;12.00;5.95;;;6.00;99.90;;;;;;5054628;28;20048;-71
2023/03/16 10:00:26;;;;;;;10.95;6.03;;;6.20;99.90;;;;;;5054469;28;20443;-68
2023/03/16 10:03:27;;;;;;;11.95;5.03;;;6.30;99.90;;;;;;5053727;28;20095;-68
2023/03/16 10:06:15;;;;;;;8.30;6.03;;;6.40;99.90;;;;;;5054217;28;20068;-68
2023/03/16 10:09:30;;;;;;;9.73;5.53;;;6.50;99.90;;;;;;5054563;28;20039;-68
2023/03/16 10:11:57;;;;;;;10.15;5.72;;;6.60;99.90;;;;;;5040010;28;20076;-68
2023/03/16 10:14:54;;;;;;;8.80;5.70;;;6.60;99.90;;;;;;5053558;28;20045;-68
2023/03/16 10:17:23;;;;;;;8.15;5.75;;;6.60;99.90;;;;;;5054273;28;20100;-68
2023/03/16 10:20:07;;;;;;;6.97;5.13;;;6.60;99.90;;;;;;5054130;28;20112;-67
2023/03/16 10:22:36;;;;;;;9.25;5.03;;;6.60;99.90;;;;;;5054078;28;20048;-68
2023/03/16 10:25:34;;;;;;;11.20;5.25;;;6.60;99.90;;;;;;5030229;28;20416;-68
2023/03/16 10:27:59;;;;;;;7.18;4.80;;;6.60;99.90;;;;;;5047836;28;20037;-67
2023/03/16 10:30:32;;;;;;;9.93;5.78;;;6.60;99.90;;;;;;5053929;28;20044;-68
2023/03/16 10:33:17;;;;;;;7.60;5.75;;;6.60;99.90;;;;;;5053762;28;20049;-68
2023/03/16 10:35:52;;;;;;;9.82;5.10;;;6.60;99.90;;;;;;5053873;28;20118;-68
2023/03/16 10:38:29;;;;;;;9.30;5.00;;;6.60;99.90;;;;;;5053981;28;20047;-68
2023/03/16 10:40:58;;;;;;;8.15;4.70;;;6.60;99.90;;;;;;5036077;28;20159;-68
2023/03/16 10:43:25;;;;;;;8.57;5.40;;;6.60;99.90;;;;;;5052833;28;20167;-68
2023/03/16 10:45:50;;;;;;;9.18;5.55;;;6.60;99.90;;;;;;5052225;28;20052;-68
2023/03/16 10:48:19;;;;;;;9.30;5.68;;;6.60;99.90;;;;;;5053321;28;20404;-68
2023/03/16 10:50:55;;;;;;;8.27;5.57;;;6.60;99.90;;;;;;5050362;28;20041;-68
2023/03/16 10:53:35;;;;;;;9.07;5.68;;;6.60;99.90;;;;;;5035052;28;20036;-68
2023/03/16 10:56:10;;;;;;;13.73;5.88;;;6.60;99.90;;;;;;5052871;28;20025;-68
2023/03/16 10:58:41;;;;;;;8.35;5.57;;;6.60;99.90;;;;;;5053323;28;20075;-69
2023/03/16 11:01:37;;;;;;;8.68;5.60;;;6.60;99.90;;;;;;5050841;28;20048;-68
2023/03/16 11:04:13;;;;;;;11.80;5.55;;;6.60;99.90;;;;;;5029216;28;20061;-68
2023/03/16 11:06:56;;;;;;;8.40;6.22;;;6.60;99.90;;;;;;5015590;28;20045;-67
2023/03/16 11:09:31;;;;;;;13.88;5.97;;;6.60;99.90;;;;;;5015873;28;20041;-70
2023/03/16 11:11:58;;;;;;;11.80;5.85;;;6.70;99.90;;;;;;5033128;28;20033;-68
2023/03/16 11:14:27;;;;;;;12.00;6.80;;;6.60;99.90;;;;;;5032896;28;20049;-70
2023/03/16 11:17:24;;;;;;;7.72;5.00;;;6.60;99.90;;;;;;5033145;28;20041;-68
2023/03/16 11:19:56;;;;;;;8.70;5.88;;;6.60;99.90;;;;;;5015283;28;20406;-70
2023/03/16 11:22:24;;;;;;;13.13;5.45;;;6.60;99.90;;;;;;5033127;28;20038;-69
2023/03/16 11:25:01;;;;;;;8.50;5.95;;;6.60;99.90;;;;;;5032713;28;20083;-68
2023/03/16 11:27:44;;;;;;;10.55;6.07;;;6.60;99.90;;;;;;5032879;28;20396;-68
2023/03/16 11:30:22;;;;;;;7.38;4.70;;;6.60;99.90;;;;;;5033239;28;20038;-69
2023/03/16 11:32:52;;;;;;;8.80;4.72;;;6.60;99.90;;;;;;5032799;28;20045;-68
2023/03/16 11:35:26;;;;;;;8.35;5.47;;;6.60;99.90;;;;;;5032565;28;20049;-68
2023/03/16 11:38:12;;;;;;;8.05;5.60;;;6.60;99.90;;;;;;5032641;28;20119;-68
2023/03/16 11:41:00;;;;;;;8.35;4.95;;;6.70;99.90;;;;;;5032725;28;20072;-68
2023/03/16 11:43:46;;;;;;;7.18;4.35;;;6.70;99.90;;;;;;5032474;28;20469;-67
2023/03/16 11:46:11;;;;;;;8.82;4.97;;;6.70;99.90;;;;;;5032559;28;20037;-68
2023/03/16 11:49:10;;;;;;;11.35;5.53;;;6.70;99.90;;;;;;5032465;28;20045;-68
2023/03/16 11:51:54;;;;;;;7.78;5.18;;;6.80;99.90;;;;;;5032498;28;20042;-68
2023/03/16 11:54:50;;;;;;;8.45;5.05;;;6.80;99.90;;;;;;5033275;28;20045;-70
2023/03/16 11:57:44;;;;;;;7.75;4.63;;;6.80;99.90;;;;;;5050885;28;20464;-68
2023/03/16 12:00:38;;;;;;;10.27;5.15;;;6.90;99.90;;;;;;5050787;28;20041;-70
2023/03/16 12:03:21;;;;;;;8.63;5.00;;;6.90;99.90;;;;;;5052119;28;20416;-68
2023/03/16 12:06:04;;;;;;;7.72;5.50;;;7.00;99.90;;;;;;5052145;28;20091;-68
2023/03/16 12:08:32;;;;;;;6.90;4.57;;;7.00;99.90;;;;;;5052117;28;20045;-68
2023/03/16 12:11:27;;;;;;;10.07;4.60;;;7.00;99.90;;;;;;5051691;28;20048;-68
2023/03/16 12:14:02;;;;;;;9.50;4.88;;;7.10;99.90;;;;;;5080928;22;20075;-69
2023/03/16 12:16:52;;;;;;;8.57;5.25;;;7.10;99.90;;;;;;5072095;28;20059;-69
2023/03/16 12:19:43;;;;;;;8.50;5.90;;;7.20;99.90;;;;;;5057061;28;20044;-69
2023/03/16 12:22:22;;;;;;;8.73;5.43;;;7.20;99.90;;;;;;5070401;28;20047;-69
2023/03/16 12:24:49;;;;;;;8.32;5.47;;;7.30;99.90;;;;;;5052908;28;20044;-69
2023/03/16 12:27:25;;;;;;;8.48;5.07;;;7.40;99.90;;;;;;5071446;28;20098;-68
2023/03/16 12:30:16;;;;;;;6.93;4.65;;;7.50;99.90;;;;;;5069125;28;20407;-68
2023/03/16 12:33:01;;;;;;;10.18;4.72;;;7.60;99.90;;;;;;5071312;28;20098;-68
2023/03/16 12:35:46;;;;;;;7.00;4.57;;;7.70;99.90;;;;;;5052743;28;20117;-68
2023/03/16 12:38:20;;;;;;;8.95;4.90;;;7.70;99.90;;;;;;5068836;28;20445;-69
2023/03/16 12:41:15;;;;;;;7.50;4.78;;;7.80;99.90;;;;;;5071377;28;20036;-68
2023/03/16 12:43:57;;;;;;;6.55;4.70;;;7.90;99.90;;;;;;5014179;28;20131;-68
2023/03/16 12:46:47;;;;;;;9.27;4.97;;;7.90;99.90;;;;;;5071486;28;20047;-69
2023/03/16 12:49:14;;;;;;;9.82;5.45;;;8.00;99.90;;;;;;5071481;28;20563;-69
2023/03/16 12:51:42;;;;;;;8.38;5.07;;;8.10;99.90;;;;;;5071650;28;20116;-68
2023/03/16 12:54:21;;;;;;;6.93;4.72;;;8.10;99.90;;;;;;5071358;28;20033;-69
2023/03/16 12:56:49;;;;;;;5.90;4.20;;;8.20;99.90;;;;;;5071512;28;20036;-68
2023/03/16 12:59:22;;;;;;;7.53;4.28;;;8.30;99.90;;;;;;5053721;28;20105;-68
2023/03/16 13:01:51;;;;;;;10.65;5.05;;;8.30;99.90;;;;;;5071414;28;20641;-68
2023/03/16 13:04:28;;;;;;;8.15;4.95;;;8.30;99.90;;;;;;5071076;28;20044;-68
2023/03/16 13:07:06;;;;;;;7.78;4.60;;;8.30;99.90;;;;;;5071997;28;20028;-68
2023/03/16 13:09:40;;;;;;;8.75;4.53;;;8.40;99.90;;;;;;5075487;28;20048;-68
2023/03/16 13:12:09;;;;;;;8.93;5.00;;;8.40;99.90;;;;;;5074426;28;20080;-68